Time;durP1;ratioP1;P1;durP2;ratioP2;P2;SDS_P1;SDS_P2;PMS_P1;PMS_P2;Temp;Humidity;BMP_temperature;BMP_pressure;BME280_temperature;BME280_humidity;BME280_pressure;Samples;Min_cycle;Max_cycle;Signal;HPM_P1;HPM_P2
2021/08/18 00:02:04;;;;;;;24.58;10.45;;;;;;;;;;5030799;28;20538;-79
2021/08/18 00:04:29;;;;;;;17.73;10.48;;;;;;;;;;5040221;28;20466;-81
2021/08/18 00:06:55;;;;;;;15.15;10.85;;;;;;;;;;5051772;28;20107;-80
2021/08/18 00:09:20;;;;;;;18.67;10.57;;;;;;;;;;5040512;28;20029;-80
2021/08/18 00:11:46;;;;;;;18.38;10.68;;;;;;;;;;5039081;28;20404;-80
2021/08/18 00:14:12;;;;;;;22.63;11.30;;;;;;;;;;5031640;28;20033;-80
2021/08/18 00:16:38;;;;;;;18.70;11.35;;;;;;;;;;5031923;28;20068;-80
2021/08/18 00:19:03;;;;;;;22.60;11.25;;;;;;;;;;5031772;28;20542;-80
2021/08/18 00:21:29;;;;;;;16.88;9.80;;;;;;;;;;5038640;28;20079;-80
2021/08/18 00:23:55;;;;;;;18.08;10.27;;;;;;;;;;5039510;28;20040;-80
2021/08/18 00:26:26;;;;;;;16.90;11.15;;;;;;;;;;5032857;28;20120;-80
2021/08/18 00:28:53;;;;;;;18.40;10.52;;;;;;;;;;5032864;28;20111;-80
2021/08/18 00:31:19;;;;;;;16.42;10.38;;;;;;;;;;5031031;28;20048;-80
2021/08/18 00:33:44;;;;;;;17.92;9.77;;;;;;;;;;5047086;28;20111;-80
2021/08/18 00:36:10;;;;;;;16.70;10.80;;;;;;;;;;5051748;28;20028;-81
2021/08/18 00:38:35;;;;;;;18.20;10.30;;;;;;;;;;5054582;28;20029;-81
2021/08/18 00:41:01;;;;;;;20.25;11.00;;;;;;;;;;5055733;28;20041;-80
2021/08/18 00:43:26;;;;;;;17.15;10.18;;;;;;;;;;5037838;28;20037;-80
2021/08/18 00:45:52;;;;;;;21.95;11.27;;;;;;;;;;5034155;28;20480;-80
2021/08/18 00:48:17;;;;;;;26.50;11.93;;;;;;;;;;5016994;28;20065;-80
2021/08/18 00:50:43;;;;;;;26.00;12.88;;;;;;;;;;4998206;28;20038;-80
2021/08/18 00:53:08;;;;;;;25.73;12.80;;;;;;;;;;5019483;28;20025;-79
2021/08/18 00:55:34;;;;;;;27.75;14.00;;;;;;;;;;5035048;28;20055;-79
2021/08/18 00:58:01;;;;;;;27.63;13.50;;;;;;;;;;5035909;28;20025;-79
2021/08/18 01:00:28;;;;;;;21.70;11.65;;;;;;;;;;5035525;28;20546;-79
2021/08/18 01:02:54;;;;;;;21.23;13.13;;;;;;;;;;5038614;28;20021;-79
2021/08/18 01:05:21;;;;;;;21.60;13.25;;;;;;;;;;5035941;28;20297;-79
2021/08/18 01:07:48;;;;;;;21.15;13.05;;;;;;;;;;5035017;28;20025;-80
2021/08/18 01:10:17;;;;;;;27.00;13.32;;;;;;;;;;5031868;28;20096;-81
2021/08/18 01:12:43;;;;;;;20.75;13.18;;;;;;;;;;5004375;28;20021;-81
2021/08/18 01:15:15;;;;;;;22.48;12.38;;;;;;;;;;5019790;28;20572;-81
2021/08/18 01:17:41;;;;;;;20.13;12.88;;;;;;;;;;5026501;28;20021;-81
2021/08/18 01:20:08;;;;;;;24.00;13.65;;;;;;;;;;5035178;28;20073;-79
2021/08/18 01:22:33;;;;;;;21.67;13.27;;;;;;;;;;5035337;28;20395;-80
2021/08/18 01:24:59;;;;;;;23.30;12.52;;;;;;;;;;5053507;28;20044;-80
2021/08/18 01:27:25;;;;;;;22.67;13.57;;;;;;;;;;5046935;28;20551;-79
2021/08/18 01:29:51;;;;;;;18.67;12.32;;;;;;;;;;5034986;28;20186;-80
2021/08/18 01:32:16;;;;;;;20.65;13.30;;;;;;;;;;5034357;28;20059;-80
2021/08/18 01:34:42;;;;;;;22.33;12.63;;;;;;;;;;5034607;28;20029;-81
2021/08/18 01:37:07;;;;;;;23.13;12.43;;;;;;;;;;5034761;28;20030;-81
2021/08/18 01:39:33;;;;;;;23.05;13.13;;;;;;;;;;5031701;28;20116;-79
2021/08/18 01:41:58;;;;;;;24.33;12.10;;;;;;;;;;5017873;28;20399;-79
2021/08/18 01:44:24;;;;;;;24.50;13.73;;;;;;;;;;5034556;28;20032;-78
2021/08/18 01:46:49;;;;;;;21.92;13.52;;;;;;;;;;5015016;28;20156;-79
2021/08/18 01:49:15;;;;;;;19.15;12.48;;;;;;;;;;5013945;28;20053;-79
2021/08/18 01:51:40;;;;;;;25.90;13.85;;;;;;;;;;5014809;28;20038;-78
2021/08/18 01:54:06;;;;;;;22.63;13.27;;;;;;;;;;5020419;28;20075;-78
2021/08/18 01:56:31;;;;;;;22.73;12.93;;;;;;;;;;5034119;28;20092;-79
2021/08/18 01:58:57;;;;;;;24.35;13.20;;;;;;;;;;5016633;28;20029;-80
2021/08/18 02:01:22;;;;;;;24.90;14.18;;;;;;;;;;5022966;28;20045;-80
2021/08/18 02:03:50;;;;;;;31.50;17.63;;;;;;;;;;5033680;28;20033;-80
2021/08/18 02:06:16;;;;;;;24.40;13.15;;;;;;;;;;5034443;28;20040;-81
2021/08/18 02:08:42;;;;;;;24.83;13.98;;;;;;;;;;5016331;28;20030;-81
2021/08/18 02:11:08;;;;;;;26.70;13.50;;;;;;;;;;5033809;28;20443;-81
2021/08/18 02:13:34;;;;;;;28.90;13.65;;;;;;;;;;5016344;28;20128;-81
2021/08/18 02:16:00;;;;;;;20.55;13.13;;;;;;;;;;5039291;28;20064;-80
2021/08/18 02:18:25;;;;;;;25.92;13.90;;;;;;;;;;5035758;28;20037;-81
2021/08/18 02:20:51;;;;;;;22.33;12.45;;;;;;;;;;5033714;28;20084;-80
2021/08/18 02:23:16;;;;;;;25.13;13.50;;;;;;;;;;5033736;28;20396;-81
2021/08/18 02:25:42;;;;;;;32.15;15.32;;;;;;;;;;5041744;28;20029;-81
2021/08/18 02:28:08;;;;;;;27.42;13.65;;;;;;;;;;5023126;28;20476;-81
2021/08/18 02:30:33;;;;;;;23.75;13.40;;;;;;;;;;5013934;28;20030;-82
2021/08/18 02:32:59;;;;;;;27.40;13.57;;;;;;;;;;5013630;28;20488;-81
2021/08/18 02:35:25;;;;;;;23.50;13.82;;;;;;;;;;5016612;28;20032;-82
2021/08/18 02:37:51;;;;;;;25.23;13.70;;;;;;;;;;5039258;28;20029;-82
2021/08/18 02:40:19;;;;;;;26.92;14.38;;;;;;;;;;5013212;28;20041;-83
2021/08/18 02:42:45;;;;;;;19.60;12.70;;;;;;;;;;5025101;28;20033;-82
2021/08/18 02:45:11;;;;;;;23.27;13.15;;;;;;;;;;5033106;28;20095;-82
2021/08/18 02:47:36;;;;;;;20.90;13.57;;;;;;;;;;5033481;28;20508;-82
2021/08/18 02:50:03;;;;;;;19.75;12.43;;;;;;;;;;5022465;28;20030;-80
2021/08/18 02:52:28;;;;;;;22.65;14.20;;;;;;;;;;5016820;28;20469;-81
2021/08/18 02:54:54;;;;;;;24.52;13.27;;;;;;;;;;5015185;28;20057;-79
2021/08/18 02:57:19;;;;;;;25.65;13.48;;;;;;;;;;5032749;28;20403;-80
2021/08/18 02:59:45;;;;;;;27.15;14.35;;;;;;;;;;5028476;28;20484;-80
2021/08/18 03:02:10;;;;;;;22.83;12.50;;;;;;;;;;5012820;28;20497;-80
2021/08/18 03:04:36;;;;;;;26.95;13.90;;;;;;;;;;5014814;28;20036;-80
2021/08/18 03:07:02;;;;;;;23.88;13.40;;;;;;;;;;5032521;28;20036;-79
2021/08/18 03:09:27;;;;;;;26.75;13.45;;;;;;;;;;5032722;28;20127;-81
2021/08/18 03:11:53;;;;;;;23.55;13.35;;;;;;;;;;5032650;28;20068;-81
2021/08/18 03:14:19;;;;;;;25.75;13.02;;;;;;;;;;5030954;28;20256;-82
2021/08/18 03:16:45;;;;;;;23.80;12.77;;;;;;;;;;5032344;28;20034;-81
2021/08/18 03:19:10;;;;;;;25.85;12.80;;;;;;;;;;5043714;28;20083;-82
2021/08/18 03:21:36;;;;;;;22.23;12.93;;;;;;;;;;5034044;28;20079;-82
2021/08/18 03:24:01;;;;;;;20.63;12.75;;;;;;;;;;5033068;28;20072;-82
2021/08/18 03:26:27;;;;;;;21.38;13.68;;;;;;;;;;5031961;28;20369;-81
2021/08/18 03:28:52;;;;;;;25.48;12.95;;;;;;;;;;5032327;28;20502;-82
2021/08/18 03:31:18;;;;;;;24.50;13.32;;;;;;;;;;5014265;28;20065;-81
2021/08/18 03:33:43;;;;;;;21.65;12.93;;;;;;;;;;5014373;28;20040;-82
2021/08/18 03:36:09;;;;;;;27.00;12.85;;;;;;;;;;5014617;28;20026;-81
2021/08/18 03:38:35;;;;;;;21.98;12.50;;;;;;;;;;5032064;28;20480;-80
2021/08/18 03:41:01;;;;;;;27.17;13.38;;;;;;;;;;5032551;28;20049;-81
2021/08/18 03:43:26;;;;;;;23.88;12.82;;;;;;;;;;5032167;28;20029;-81
2021/08/18 03:45:52;;;;;;;24.17;14.35;;;;;;;;;;5032153;28;20168;-80
2021/08/18 03:48:17;;;;;;;27.20;13.80;;;;;;;;;;5022996;28;20076;-80
2021/08/18 03:50:43;;;;;;;22.38;14.02;;;;;;;;;;5011253;28;20468;-80
2021/08/18 03:53:08;;;;;;;21.73;13.50;;;;;;;;;;5031905;28;20467;-81
2021/08/18 03:55:34;;;;;;;23.60;13.25;;;;;;;;;;5031845;28;20029;-82
2021/08/18 03:57:59;;;;;;;21.95;12.57;;;;;;;;;;5031636;28;20053;-81
2021/08/18 04:00:25;;;;;;;22.55;13.18;;;;;;;;;;5041579;28;20539;-82
2021/08/18 04:02:50;;;;;;;24.58;12.85;;;;;;;;;;5038784;28;20369;-82
2021/08/18 04:05:16;;;;;;;20.52;12.77;;;;;;;;;;5031320;28;20029;-82
2021/08/18 04:07:42;;;;;;;23.92;12.18;;;;;;;;;;5031134;28;20418;-80
2021/08/18 04:10:08;;;;;;;23.40;12.88;;;;;;;;;;5036139;28;20029;-81
2021/08/18 04:12:53;;;;;;;21.33;12.20;;;;;;;;;;5033098;28;20037;-81
2021/08/18 04:15:19;;;;;;;22.05;12.35;;;;;;;;;;5044394;28;20057;-81
2021/08/18 04:17:45;;;;;;;23.50;12.45;;;;;;;;;;5031129;28;20095;-81
2021/08/18 04:20:11;;;;;;;22.20;12.55;;;;;;;;;;5031466;28;20033;-80
2021/08/18 04:22:37;;;;;;;20.48;12.95;;;;;;;;;;5013550;28;20025;-80
2021/08/18 04:25:03;;;;;;;23.33;12.20;;;;;;;;;;5013451;28;20476;-81
2021/08/18 04:27:29;;;;;;;24.08;13.85;;;;;;;;;;5026047;28;20036;-80
2021/08/18 04:29:54;;;;;;;23.75;13.07;;;;;;;;;;5011952;28;20033;-80
2021/08/18 04:32:19;;;;;;;25.00;12.95;;;;;;;;;;5043508;28;20032;-80
2021/08/18 04:34:45;;;;;;;24.75;13.57;;;;;;;;;;5031498;28;20068;-81
2021/08/18 04:37:10;;;;;;;24.40;13.10;;;;;;;;;;5032257;28;20396;-80
2021/08/18 04:39:36;;;;;;;24.17;12.13;;;;;;;;;;5032042;28;20030;-80
2021/08/18 04:42:02;;;;;;;21.80;12.23;;;;;;;;;;5041427;28;20045;-82
2021/08/18 04:44:27;;;;;;;20.25;12.13;;;;;;;;;;5031746;28;20108;-82
2021/08/18 04:46:53;;;;;;;20.65;11.48;;;;;;;;;;5013459;28;20040;-81
2021/08/18 04:49:18;;;;;;;25.35;12.52;;;;;;;;;;5029970;28;20026;-81
2021/08/18 04:51:44;;;;;;;25.33;12.20;;;;;;;;;;5032191;28;20064;-83
2021/08/18 04:54:09;;;;;;;26.08;12.70;;;;;;;;;;5031084;28;20040;-82
2021/08/18 04:56:35;;;;;;;20.02;12.07;;;;;;;;;;5031131;28;20052;-80
2021/08/18 04:59:00;;;;;;;24.35;12.70;;;;;;;;;;5031369;28;20060;-81
2021/08/18 05:01:26;;;;;;;23.63;12.60;;;;;;;;;;5031212;28;20048;-79
2021/08/18 05:03:51;;;;;;;19.33;11.75;;;;;;;;;;5018319;28;20053;-80
2021/08/18 05:06:17;;;;;;;22.98;12.65;;;;;;;;;;5028599;28;20460;-81
2021/08/18 05:08:42;;;;;;;22.30;13.60;;;;;;;;;;5030936;28;20132;-81
2021/08/18 05:11:08;;;;;;;45.38;14.43;;;;;;;;;;5030567;28;20040;-80
2021/08/18 05:13:33;;;;;;;24.88;13.25;;;;;;;;;;5030977;28;20067;-81
2021/08/18 05:15:59;;;;;;;27.38;12.60;;;;;;;;;;5028399;28;20148;-81
2021/08/18 05:18:24;;;;;;;28.27;13.60;;;;;;;;;;5030687;28;20575;-80
2021/08/18 05:20:50;;;;;;;25.40;13.40;;;;;;;;;;5009362;28;20412;-81
2021/08/18 05:23:15;;;;;;;26.33;13.15;;;;;;;;;;5026891;28;20030;-81
2021/08/18 05:25:41;;;;;;;19.88;11.88;;;;;;;;;;5033891;28;20029;-81
2021/08/18 05:28:08;;;;;;;21.60;12.07;;;;;;;;;;5033840;28;20036;-80
2021/08/18 05:30:33;;;;;;;20.83;12.23;;;;;;;;;;5033893;28;20204;-81
2021/08/18 05:32:59;;;;;;;24.65;12.70;;;;;;;;;;5038702;28;20107;-80
2021/08/18 05:35:25;;;;;;;21.95;10.95;;;;;;;;;;5032599;28;20026;-81
2021/08/18 05:37:50;;;;;;;19.42;11.18;;;;;;;;;;5017903;28;20029;-81
2021/08/18 05:40:16;;;;;;;20.00;11.10;;;;;;;;;;5032664;28;20041;-81
2021/08/18 05:42:41;;;;;;;21.17;11.07;;;;;;;;;;5033100;28;20037;-80
2021/08/18 05:45:07;;;;;;;22.92;11.38;;;;;;;;;;5013696;28;20030;-81
2021/08/18 05:47:33;;;;;;;20.35;10.73;;;;;;;;;;5013711;28;20068;-81
2021/08/18 05:49:59;;;;;;;22.70;11.82;;;;;;;;;;5014894;28;20026;-81
2021/08/18 05:52:24;;;;;;;22.48;12.23;;;;;;;;;;5028590;28;20124;-81
2021/08/18 05:54:50;;;;;;;22.85;12.02;;;;;;;;;;5043659;28;20104;-81
2021/08/18 05:57:15;;;;;;;27.25;11.93;;;;;;;;;;5047414;28;20037;-83
2021/08/18 05:59:41;;;;;;;29.77;11.65;;;;;;;;;;5024880;28;20187;-81
2021/08/18 06:02:06;;;;;;;16.00;11.43;;;;;;;;;;5024259;28;20049;-80
2021/08/18 06:04:32;;;;;;;17.55;11.30;;;;;;;;;;5041041;28;20025;-80
2021/08/18 06:06:58;;;;;;;23.98;11.55;;;;;;;;;;5045128;28;20056;-82
2021/08/18 06:09:23;;;;;;;21.65;12.73;;;;;;;;;;5033103;28;20060;-81
2021/08/18 06:11:49;;;;;;;24.17;12.02;;;;;;;;;;5031295;28;20489;-80
2021/08/18 06:14:15;;;;;;;29.40;12.95;;;;;;;;;;5036974;28;20518;-82
2021/08/18 06:16:40;;;;;;;23.20;12.02;;;;;;;;;;5030588;28;20064;-81
2021/08/18 06:19:06;;;;;;;27.35;12.38;;;;;;;;;;5013412;28;20033;-80
2021/08/18 06:21:32;;;;;;;21.80;11.75;;;;;;;;;;5012714;28;20665;-80
2021/08/18 06:24:06;;;;;;;19.55;11.65;;;;;;;;;;5033485;28;20029;-80
2021/08/18 06:26:31;;;;;;;17.02;11.18;;;;;;;;;;5025722;28;20429;-79
2021/08/18 06:28:57;;;;;;;16.60;11.63;;;;;;;;;;5035698;28;20116;-81
2021/08/18 06:31:22;;;;;;;27.23;10.60;;;;;;;;;;5033295;28;20047;-81
2021/08/18 06:33:49;;;;;;;20.83;11.20;;;;;;;;;;5034285;28;20041;-80
2021/08/18 06:36:15;;;;;;;20.20;11.13;;;;;;;;;;5047611;28;20060;-81
2021/08/18 06:38:40;;;;;;;14.23;11.23;;;;;;;;;;5045432;28;20065;-81
2021/08/18 06:41:06;;;;;;;16.13;10.65;;;;;;;;;;5015788;28;20057;-81
2021/08/18 06:43:32;;;;;;;17.08;9.85;;;;;;;;;;4994808;28;20033;-81
2021/08/18 06:45:57;;;;;;;21.00;10.70;;;;;;;;;;5022969;28;20369;-81
2021/08/18 06:48:23;;;;;;;20.67;10.25;;;;;;;;;;4995165;28;20038;-82
2021/08/18 06:50:48;;;;;;;16.20;10.35;;;;;;;;;;5013387;28;20038;-81
2021/08/18 06:53:14;;;;;;;20.05;10.80;;;;;;;;;;5012622;28;20030;-81
2021/08/18 06:55:40;;;;;;;22.90;10.98;;;;;;;;;;5016918;28;20029;-81
2021/08/18 06:58:05;;;;;;;22.80;11.13;;;;;;;;;;5020179;28;20033;-81
2021/08/18 07:00:31;;;;;;;21.08;10.68;;;;;;;;;;5028333;28;20523;-82
2021/08/18 07:02:56;;;;;;;22.13;11.70;;;;;;;;;;5026916;28;20236;-81
2021/08/18 07:05:23;;;;;;;14.73;10.30;;;;;;;;;;5025340;28;20102;-82
2021/08/18 07:07:48;;;;;;;21.65;10.60;;;;;;;;;;5049173;28;20029;-82
2021/08/18 07:10:15;;;;;;;16.67;9.98;;;;;;;;;;5031951;28;20511;-82
2021/08/18 07:12:40;;;;;;;17.38;10.05;;;;;;;;;;5029563;28;20030;-82
2021/08/18 07:15:06;;;;;;;15.75;10.27;;;;;;;;;;5023337;28;20053;-82
2021/08/18 07:17:32;;;;;;;13.30;9.85;;;;;;;;;;5032874;28;20408;-82
2021/08/18 07:19:58;;;;;;;23.20;10.18;;;;;;;;;;5025697;28;20038;-81
2021/08/18 07:22:24;;;;;;;19.35;10.32;;;;;;;;;;5026036;28;20136;-81
2021/08/18 07:24:50;;;;;;;15.55;9.80;;;;;;;;;;5029748;28;20523;-80
2021/08/18 07:27:15;;;;;;;17.77;9.52;;;;;;;;;;5010661;28;20128;-81
2021/08/18 07:29:41;;;;;;;21.42;10.10;;;;;;;;;;5033571;28;20035;-81
2021/08/18 07:32:07;;;;;;;17.10;9.98;;;;;;;;;;5029754;28;20124;-79
2021/08/18 07:34:33;;;;;;;13.70;9.25;;;;;;;;;;5022768;28;20040;-81
2021/08/18 07:36:59;;;;;;;17.60;10.07;;;;;;;;;;5032532;28;20040;-81
2021/08/18 07:39:25;;;;;;;19.88;8.88;;;;;;;;;;5042064;28;20025;-81
2021/08/18 07:41:50;;;;;;;14.45;9.05;;;;;;;;;;5028613;28;20104;-79
2021/08/18 07:44:18;;;;;;;12.75;9.02;;;;;;;;;;5029668;28;20049;-80
2021/08/18 07:46:48;;;;;;;13.95;8.77;;;;;;;;;;5031251;28;20047;-83
2021/08/18 07:49:13;;;;;;;13.48;8.60;;;;;;;;;;5032725;28;20411;-81
2021/08/18 07:51:39;;;;;;;16.05;9.93;;;;;;;;;;5051244;28;20099;-81
2021/08/18 07:54:05;;;;;;;15.80;9.65;;;;;;;;;;5033028;28;20506;-81
2021/08/18 07:56:33;;;;;;;13.32;8.38;;;;;;;;;;5031265;28;20029;-81
2021/08/18 07:58:59;;;;;;;15.90;9.10;;;;;;;;;;5031194;28;20045;-80
2021/08/18 08:01:25;;;;;;;14.70;8.70;;;;;;;;;;5032575;28;20064;-79
2021/08/18 08:03:50;;;;;;;19.48;8.73;;;;;;;;;;5051514;28;20060;-80
2021/08/18 08:06:16;;;;;;;15.88;8.07;;;;;;;;;;5040803;28;20033;-81
2021/08/18 08:08:41;;;;;;;17.95;8.45;;;;;;;;;;5030641;28;20030;-79
2021/08/18 08:11:07;;;;;;;14.20;7.50;;;;;;;;;;5031750;28;20111;-79
2021/08/18 08:13:32;;;;;;;9.35;6.30;;;;;;;;;;5030671;28;20038;-80
2021/08/18 08:15:58;;;;;;;13.35;7.05;;;;;;;;;;5030847;28;20419;-79
2021/08/18 08:18:24;;;;;;;11.68;6.57;;;;;;;;;;5030873;28;20239;-80
2021/08/18 08:20:49;;;;;;;10.55;6.97;;;;;;;;;;5031758;28;20037;-81
2021/08/18 08:23:15;;;;;;;11.57;6.50;;;;;;;;;;5027440;28;20040;-81
2021/08/18 08:25:40;;;;;;;12.02;7.20;;;;;;;;;;5039077;28;20161;-81
2021/08/18 08:28:06;;;;;;;14.30;8.40;;;;;;;;;;5014078;28;20025;-80
2021/08/18 08:30:32;;;;;;;18.00;8.88;;;;;;;;;;5024548;28;20037;-81
2021/08/18 08:32:57;;;;;;;12.90;7.50;;;;;;;;;;5030578;28;20396;-81
2021/08/18 08:35:23;;;;;;;12.02;8.68;;;;;;;;;;5030630;28;20037;-81
2021/08/18 08:37:49;;;;;;;9.52;7.72;;;;;;;;;;5030680;28;20514;-81
2021/08/18 08:40:15;;;;;;;12.38;8.52;;;;;;;;;;5007673;28;20048;-80
2021/08/18 08:42:41;;;;;;;14.73;8.32;;;;;;;;;;5030872;28;20053;-83
2021/08/18 08:45:07;;;;;;;13.60;8.45;;;;;;;;;;5030911;28;20029;-82
2021/08/18 08:47:36;;;;;;;23.23;9.40;;;;;;;;;;5030979;28;20496;-80
2021/08/18 08:50:03;;;;;;;12.70;8.93;;;;;;;;;;5031680;28;20077;-80
2021/08/18 08:52:29;;;;;;;22.63;9.82;;;;;;;;;;5031045;28;20045;-81
2021/08/18 08:54:54;;;;;;;20.02;9.70;;;;;;;;;;5030171;28;20026;-80
2021/08/18 08:57:20;;;;;;;14.98;7.97;;;;;;;;;;5029550;28;20036;-80
2021/08/18 08:59:45;;;;;;;17.27;8.48;;;;;;;;;;5016860;28;21975;-80
2021/08/18 09:02:12;;;;;;;14.85;7.72;;;;;;;;;;5039108;28;20053;-80
2021/08/18 09:04:45;;;;;;;11.07;7.38;;;;;;;;;;5034305;28;20028;-80
2021/08/18 09:07:11;;;;;;;15.27;7.45;;;;;;;;;;5034477;28;20542;-80
2021/08/18 09:09:38;;;;;;;14.55;7.35;;;;;;;;;;5016728;28;20022;-80
2021/08/18 09:12:11;;;;;;;16.40;7.93;;;;;;;;;;5018382;28;20523;-80
2021/08/18 09:14:37;;;;;;;20.45;8.50;;;;;;;;;;5034171;28;20065;-80
2021/08/18 09:17:23;;;;;;;11.80;8.30;;;;;;;;;;5027620;28;20029;-80
2021/08/18 09:19:56;;;;;;;23.55;9.15;;;;;;;;;;5032298;28;20037;-77
2021/08/18 09:22:22;;;;;;;22.33;9.05;;;;;;;;;;4996485;28;20053;-80
2021/08/18 09:24:47;;;;;;;60.65;10.30;;;;;;;;;;5014019;28;20407;-80
2021/08/18 09:27:13;;;;;;;29.15;9.88;;;;;;;;;;5018724;28;20094;-78
2021/08/18 09:29:42;;;;;;;24.27;8.32;;;;;;;;;;5033668;28;20436;-78
2021/08/18 09:32:20;;;;;;;23.08;8.27;;;;;;;;;;5033367;28;20129;-78
2021/08/18 09:34:50;;;;;;;20.67;8.38;;;;;;;;;;5034014;28;20040;-78
2021/08/18 09:37:15;;;;;;;11.68;7.18;;;;;;;;;;5033784;28;20330;-77
2021/08/18 09:39:41;;;;;;;13.20;7.45;;;;;;;;;;5034139;28;20033;-80
2021/08/18 09:42:11;;;;;;;15.02;7.55;;;;;;;;;;5049820;28;20462;-79
2021/08/18 09:44:36;;;;;;;11.13;5.90;;;;;;;;;;5035842;28;20033;-77
2021/08/18 09:47:05;;;;;;;8.07;5.63;;;;;;;;;;5033558;28;20044;-78
2021/08/18 09:49:32;;;;;;;8.30;5.25;;;;;;;;;;5033750;28;20036;-77
2021/08/18 09:51:58;;;;;;;14.52;7.15;;;;;;;;;;5033622;28;20128;-78
2021/08/18 09:54:24;;;;;;;16.10;7.88;;;;;;;;;;5033206;28;20030;-78
2021/08/18 09:56:49;;;;;;;17.67;7.72;;;;;;;;;;5033150;28;20040;-79
2021/08/18 09:59:21;;;;;;;11.75;6.90;;;;;;;;;;5033052;28;20578;-80
2021/08/18 10:01:47;;;;;;;11.02;6.65;;;;;;;;;;5040807;28;20123;-80
2021/08/18 10:04:13;;;;;;;8.70;5.95;;;;;;;;;;5053517;28;20032;-78
2021/08/18 10:06:38;;;;;;;12.13;6.13;;;;;;;;;;5053199;28;20029;-80
2021/08/18 10:09:04;;;;;;;8.27;5.47;;;;;;;;;;5052648;28;20505;-79
2021/08/18 10:11:29;;;;;;;11.80;4.78;;;;;;;;;;5039650;28;20040;-78
2021/08/18 10:13:55;;;;;;;7.22;5.38;;;;;;;;;;5032747;28;20452;-79
2021/08/18 10:16:21;;;;;;;14.80;5.82;;;;;;;;;;5032305;28;20152;-79
2021/08/18 10:18:52;;;;;;;11.57;6.20;;;;;;;;;;5029289;28;20108;-80
2021/08/18 10:21:19;;;;;;;11.23;5.72;;;;;;;;;;5026292;28;20125;-80
2021/08/18 10:23:51;;;;;;;10.10;5.47;;;;;;;;;;5032744;28;20025;-79
2021/08/18 10:26:32;;;;;;;12.00;6.22;;;;;;;;;;5013149;28;20117;-79
2021/08/18 10:29:01;;;;;;;10.73;6.20;;;;;;;;;;5037903;28;20536;-80
2021/08/18 10:31:42;;;;;;;9.93;6.18;;;;;;;;;;5036622;28;20638;-79
2021/08/18 10:34:23;;;;;;;12.82;6.05;;;;;;;;;;5033887;28;20037;-77
2021/08/18 10:36:51;;;;;;;10.95;5.22;;;;;;;;;;5044689;28;20022;-78
2021/08/18 10:39:25;;;;;;;9.80;6.03;;;;;;;;;;5032401;28;20037;-80
2021/08/18 10:41:57;;;;;;;12.43;6.90;;;;;;;;;;5032094;28;20037;-80
2021/08/18 10:44:38;;;;;;;12.38;7.60;;;;;;;;;;5033800;28;20021;-79
2021/08/18 10:47:10;;;;;;;13.48;6.68;;;;;;;;;;5035152;28;20034;-81
2021/08/18 10:49:35;;;;;;;14.75;7.35;;;;;;;;;;5032367;28;20021;-77
2021/08/18 10:52:01;;;;;;;11.98;7.45;;;;;;;;;;5014443;28;20036;-78
2021/08/18 10:54:29;;;;;;;14.65;7.45;;;;;;;;;;5032640;28;20029;-78
2021/08/18 10:56:58;;;;;;;19.67;7.65;;;;;;;;;;5029028;28;20041;-78
2021/08/18 10:59:38;;;;;;;15.77;7.95;;;;;;;;;;5023965;28;20025;-79
2021/08/18 11:02:04;;;;;;;16.67;8.00;;;;;;;;;;5032092;28;20534;-78
2021/08/18 11:04:46;;;;;;;17.63;7.75;;;;;;;;;;5041692;28;20029;-79
2021/08/18 11:07:12;;;;;;;15.82;8.45;;;;;;;;;;5012613;28;20403;-79
2021/08/18 11:09:46;;;;;;;17.80;8.30;;;;;;;;;;5051584;28;20032;-79
2021/08/18 11:12:48;;;;;;;10.90;7.97;;;;;;;;;;5040403;28;20025;-78
2021/08/18 11:15:19;;;;;;;14.98;7.18;;;;;;;;;;4970726;28;20051;-79
2021/08/18 11:17:51;;;;;;;19.73;8.23;;;;;;;;;;5022110;28;20080;-78
2021/08/18 11:20:18;;;;;;;11.75;6.70;;;;;;;;;;5042256;28;20025;-78
2021/08/18 11:22:44;;;;;;;10.50;6.07;;;;;;;;;;5031899;28;20044;-78
2021/08/18 11:25:13;;;;;;;12.13;6.22;;;;;;;;;;5031231;28;20021;-80
2021/08/18 11:27:39;;;;;;;8.73;5.80;;;;;;;;;;5031950;28;20124;-76
2021/08/18 11:30:06;;;;;;;9.23;5.05;;;;;;;;;;5021322;28;20554;-78
2021/08/18 11:32:31;;;;;;;10.90;5.45;;;;;;;;;;5036710;28;20018;-76
2021/08/18 11:34:57;;;;;;;10.60;5.97;;;;;;;;;;5036143;28;20033;-78
2021/08/18 11:37:22;;;;;;;9.38;5.32;;;;;;;;;;5032265;28;20440;-79
2021/08/18 11:39:55;;;;;;;12.30;5.80;;;;;;;;;;5015136;28;20644;-78
2021/08/18 11:42:21;;;;;;;10.32;5.88;;;;;;;;;;5031809;28;20412;-78
2021/08/18 11:44:48;;;;;;;8.82;5.47;;;;;;;;;;5031351;28;20037;-79
2021/08/18 11:47:13;;;;;;;5.28;4.78;;;;;;;;;;5013851;28;20099;-79
2021/08/18 11:49:40;;;;;;;6.13;4.90;;;;;;;;;;5031867;28;20033;-76
2021/08/18 11:52:06;;;;;;;10.48;4.82;;;;;;;;;;5014113;28;20044;-78
2021/08/18 11:54:33;;;;;;;6.20;3.80;;;;;;;;;;5031554;28;20623;-76
2021/08/18 11:57:00;;;;;;;8.00;4.25;;;;;;;;;;5031792;28;20021;-78
2021/08/18 11:59:26;;;;;;;5.70;4.10;;;;;;;;;;5031358;28;20526;-78
2021/08/18 12:01:52;;;;;;;6.40;4.00;;;;;;;;;;5031119;28;20029;-77
2021/08/18 12:04:22;;;;;;;4.63;3.85;;;;;;;;;;5030402;28;20083;-78
2021/08/18 12:07:03;;;;;;;6.60;4.05;;;;;;;;;;5031861;28;20449;-79
2021/08/18 12:09:28;;;;;;;7.22;4.78;;;;;;;;;;5031561;28;20048;-76
2021/08/18 12:12:14;;;;;;;6.55;4.85;;;;;;;;;;5031510;28;20526;-79
2021/08/18 12:14:44;;;;;;;9.75;5.38;;;;;;;;;;5010907;28;20065;-77
2021/08/18 12:17:10;;;;;;;11.15;6.15;;;;;;;;;;5028666;28;20030;-79
2021/08/18 12:19:37;;;;;;;9.65;6.00;;;;;;;;;;5030750;28;20404;-77
2021/08/18 12:22:10;;;;;;;10.07;6.00;;;;;;;;;;5027398;28;20083;-78
2021/08/18 12:24:36;;;;;;;12.13;5.85;;;;;;;;;;5027611;28;20070;-76
2021/08/18 12:27:05;;;;;;;13.52;6.32;;;;;;;;;;5031366;28;20033;-78
2021/08/18 12:29:32;;;;;;;11.93;6.28;;;;;;;;;;5029041;28;20030;-78
2021/08/18 12:31:58;;;;;;;12.13;7.53;;;;;;;;;;5026243;28;20021;-78
2021/08/18 12:34:31;;;;;;;10.48;6.10;;;;;;;;;;5036737;28;20518;-78
2021/08/18 12:36:59;;;;;;;11.63;6.63;;;;;;;;;;5035943;28;20503;-76
2021/08/18 12:39:29;;;;;;;10.82;6.07;;;;;;;;;;5050966;28;20036;-78
2021/08/18 12:41:55;;;;;;;9.52;6.55;;;;;;;;;;5040249;28;20036;-78
2021/08/18 12:44:28;;;;;;;7.85;5.82;;;;;;;;;;5039184;28;20377;-78
2021/08/18 12:47:02;;;;;;;8.93;5.40;;;;;;;;;;5034657;28;20166;-79
2021/08/18 12:49:29;;;;;;;13.57;5.97;;;;;;;;;;5019675;28;20102;-78
2021/08/18 12:51:58;;;;;;;14.35;5.90;;;;;;;;;;5037000;28;20451;-79
2021/08/18 12:54:24;;;;;;;7.47;5.03;;;;;;;;;;5036700;28;20037;-79
2021/08/18 12:56:50;;;;;;;10.55;5.10;;;;;;;;;;5036682;28;20025;-79
2021/08/18 12:59:15;;;;;;;9.95;5.30;;;;;;;;;;5037085;28;20033;-80
2021/08/18 13:01:41;;;;;;;8.55;5.10;;;;;;;;;;5034726;28;20099;-80
2021/08/18 13:04:07;;;;;;;7.85;5.78;;;;;;;;;;5036698;28;20120;-78
2021/08/18 13:06:32;;;;;;;7.90;5.13;;;;;;;;;;5031806;28;20045;-78
2021/08/18 13:08:58;;;;;;;8.68;5.28;;;;;;;;;;5036205;28;20033;-79
2021/08/18 13:11:23;;;;;;;5.60;4.60;;;;;;;;;;5036527;28;20530;-76
2021/08/18 13:13:49;;;;;;;6.60;5.03;;;;;;;;;;5036170;28;20471;-78
2021/08/18 13:16:21;;;;;;;7.00;5.38;;;;;;;;;;5034203;28;20049;-77
2021/08/18 13:18:48;;;;;;;9.80;5.10;;;;;;;;;;5037088;28;20465;-77
2021/08/18 13:21:14;;;;;;;7.07;5.80;;;;;;;;;;5036233;28;20132;-78
2021/08/18 13:23:40;;;;;;;14.40;6.32;;;;;;;;;;5035955;28;20057;-78
2021/08/18 13:26:05;;;;;;;14.65;6.35;;;;;;;;;;5036970;28;20448;-78
2021/08/18 13:28:31;;;;;;;10.05;6.00;;;;;;;;;;5037109;28;20030;-78
2021/08/18 13:30:57;;;;;;;7.78;5.18;;;;;;;;;;5019753;28;20040;-79
2021/08/18 13:33:23;;;;;;;12.73;6.03;;;;;;;;;;5036895;28;20029;-79
2021/08/18 13:35:48;;;;;;;9.75;5.40;;;;;;;;;;5037366;28;20037;-79
2021/08/18 13:38:14;;;;;;;11.50;6.15;;;;;;;;;;5037424;28;20376;-79
2021/08/18 13:40:40;;;;;;;6.10;5.50;;;;;;;;;;5037495;28;20168;-78
2021/08/18 13:43:05;;;;;;;6.60;5.78;;;;;;;;;;5037476;28;20491;-78
2021/08/18 13:45:31;;;;;;;7.60;5.47;;;;;;;;;;5016362;28;20108;-78
2021/08/18 13:47:57;;;;;;;4.95;4.45;;;;;;;;;;5027844;28;20079;-78
2021/08/18 13:50:27;;;;;;;8.52;5.47;;;;;;;;;;5034063;28;20449;-79
2021/08/18 13:52:52;;;;;;;6.85;5.03;;;;;;;;;;5029384;28;20036;-79
2021/08/18 13:55:18;;;;;;;7.70;5.10;;;;;;;;;;5022043;28;20030;-78
2021/08/18 13:57:44;;;;;;;8.07;4.78;;;;;;;;;;5032903;28;20041;-76
2021/08/18 14:00:09;;;;;;;6.78;5.18;;;;;;;;;;5033566;28;20033;-77
2021/08/18 14:02:35;;;;;;;9.20;5.05;;;;;;;;;;5033806;28;20029;-78
2021/08/18 14:05:01;;;;;;;8.10;5.35;;;;;;;;;;5032414;28;20033;-78
2021/08/18 14:07:26;;;;;;;6.45;5.25;;;;;;;;;;5033332;28;20033;-77
2021/08/18 14:09:52;;;;;;;9.05;6.10;;;;;;;;;;5032696;28;20029;-78
2021/08/18 14:12:17;;;;;;;6.45;4.97;;;;;;;;;;5033005;28;20065;-78
2021/08/18 14:14:43;;;;;;;12.07;6.57;;;;;;;;;;5032619;28;20087;-78
2021/08/18 14:17:08;;;;;;;16.02;7.32;;;;;;;;;;5022178;28;20121;-78
2021/08/18 14:19:34;;;;;;;8.02;6.60;;;;;;;;;;5017016;28;20033;-78
2021/08/18 14:22:00;;;;;;;12.65;6.55;;;;;;;;;;5015459;28;20036;-77
2021/08/18 14:24:26;;;;;;;9.35;6.70;;;;;;;;;;5033129;28;20026;-79